Stations météo

réclame
Mon MeteoGroup
Bielsa, Espagne (8103): Température de l'air & dewpoint: 13.07.2018 21:00:00 - 19.07.2018 21:00:00 (CEST)Bielsa, Espagne (8103): Vitesse du vent & gusts: 13.07.2018 21:00:00 - 19.07.2018 21:00:00 (CEST)Bielsa, Espagne (8103): Direction du vent: 13.07.2018 21:00:00 - 19.07.2018 21:00:00 (CEST)Bielsa, Espagne (8103): visibility: 13.07.2018 21:00:00 - 19.07.2018 21:00:00 (CEST)Bielsa, Espagne (8103): Ensoleillement: 13.07.2018 21:00:00 - 19.07.2018 21:00:00 (CEST)Bielsa, Espagne (8103): Quantités de précipitations: 13.07.2018 21:00:00 - 19.07.2018 21:00:00 (CEST)
Date & Time tt [°C] td [°C] ff [km/h] ff [knt] fx [km/h] fx [knt] dd vv [km] sd [min] rr [mm]
19.07.2018 21:00:00 - - - - - - - - - -
19.07.2018 20:00:00 23,1 12,1 2 1 5 3 NW 20 0 -
19.07.2018 19:00:00 28,0 11,6 2 1 23 13 SW 20 52 0,0
19.07.2018 18:00:00 29,3 8,9 6 3 25 14 ESE 20 57 0,0
19.07.2018 17:00:00 28,4 6,4 4 2 26 14 SE 20 51 0,0
19.07.2018 16:00:00 28,9 9,0 6 3 33 18 ESE 19 49 0,0
19.07.2018 15:00:00 28,2 5,8 9 5 27 15 ESE 20 56 0,0
19.07.2018 14:00:00 28,3 10,0 7 4 22 12 ESE 20 57 -
19.07.2018 13:00:00 28,1 8,4 8 4 28 15 SE 20 60 0,0
19.07.2018 12:00:00 25,6 8,1 7 4 26 14 ESE 20 60 0,0
19.07.2018 11:00:00 22,5 12,7 3 2 9 5 E 20 60 0,0
19.07.2018 10:00:00 18,1 12,7 2 1 12 7 NE 20 60 0,0
19.07.2018 09:00:00 13,4 11,8 1 1 9 5 NE 20 27 0,0
19.07.2018 08:00:00 11,1 9,7 2 1 12 7 WNW 20 0 -
19.07.2018 07:00:00 11,4 9,4 5 3 15 8 NNW 20 0 0,0
19.07.2018 06:00:00 10,8 9,6 2 1 10 5 WNW 20 0 0,0
19.07.2018 05:00:00 11,5 9,8 4 2 18 10 NW 20 0 0,0
19.07.2018 04:00:00 11,9 9,9 4 2 16 9 NW 20 0 0,0
19.07.2018 03:00:00 12,0 10,4 1 1 15 8 E 20 0 0,0
19.07.2018 02:00:00 12,2 10,8 1 1 6 3 NW 20 0 -
19.07.2018 01:00:00 13,0 11,2 1 1 10 6 NNW 20 0 0,0
19.07.2018 00:00:00 14,2 11,6 3 2 19 11 NW 20 0 0,0
18.07.2018 23:00:00 15,0 12,1 2 1 13 7 NW 20 0 0,0
18.07.2018 22:00:00 16,6 12,5 5 3 15 8 NNW 20 0 0,0
18.07.2018 21:00:00 18,1 13,0 1 1 16 9 N 20 0 0,0
18.07.2018 20:00:00 19,9 12,4 4 2 27 15 E 20 0 -
18.07.2018 19:00:00 22,4 10,2 11 6 39 21 NNW 20 0 0,0
18.07.2018 18:00:00 25,0 8,5 7 4 39 21 E 20 3 0,0
18.07.2018 17:00:00 25,7 10,3 9 5 31 17 E 20 11 0,0
18.07.2018 16:00:00 24,4 11,0 6 3 22 12 E 20 9 0,0
18.07.2018 15:00:00 26,2 14,3 3 2 13 7 ESE 20 10 0,0
18.07.2018 14:00:00 26,5 13,0 4 2 20 11 SE 12 24 -
18.07.2018 13:00:00 27,2 11,2 6 3 19 11 ESE 20 53 0,0
18.07.2018 12:00:00 25,8 11,9 6 3 18 10 SE 20 57 0,0
18.07.2018 11:00:00 23,0 13,0 4 2 8 5 ESE 20 58 0,0
18.07.2018 10:00:00 18,7 13,4 2 1 18 10 ENE 20 27 0,0
18.07.2018 09:00:00 14,9 13,7 1 1 17 9 WNW 20 1 0,0
18.07.2018 08:00:00 12,4 11,3 3 1 13 7 NNW 20 0 -
18.07.2018 07:00:00 12,2 11,1 1 1 12 7 WNW 20 0 0,0
18.07.2018 06:00:00 12,2 10,8 2 1 21 11 SW 20 0 0,0
18.07.2018 05:00:00 12,0 11,1 1 1 7 4 N 18 0 0,0
18.07.2018 04:00:00 12,5 11,2 2 1 11 6 NNW 19 0 0,0
18.07.2018 03:00:00 13,0 11,6 3 2 11 6 NNW 20 0 0,0
18.07.2018 02:00:00 13,1 11,8 2 1 8 4 NNW 20 0 -
18.07.2018 01:00:00 13,9 12,1 1 1 9 5 NNE 20 0 0,0
18.07.2018 00:00:00 14,8 12,4 1 1 12 6 NW 20 0 0,0
17.07.2018 23:00:00 15,4 12,8 3 2 9 5 NW 20 0 0,0
17.07.2018 22:00:00 16,7 13,3 3 2 8 4 NNW 20 0 0,0
17.07.2018 21:00:00 18,8 14,2 0 0 6 4 N 20 0 0,0
17.07.2018 20:00:00 20,8 14,2 2 1 5 3 NNW 20 0 -
17.07.2018 19:00:00 25,4 11,9 4 2 17 9 SE 20 45 0,0
17.07.2018 18:00:00 27,3 11,8 6 3 25 13 SE 20 60 0,0
17.07.2018 17:00:00 27,3 10,0 7 4 26 14 SE 20 58 0,0
17.07.2018 16:00:00 27,6 8,9 5 3 21 12 SE 18 55 0,0
17.07.2018 15:00:00 27,0 8,9 5 3 24 13 SE 20 59 0,0
17.07.2018 14:00:00 26,1 8,5 8 5 26 14 SE 20 60 -
17.07.2018 13:00:00 25,3 8,8 6 4 27 14 SE 20 60 0,0
17.07.2018 12:00:00 24,0 9,9 7 4 18 10 SE 20 60 0,0
17.07.2018 11:00:00 21,0 10,2 2 1 7 4 SE 20 60 0,0
17.07.2018 10:00:00 16,7 10,3 1 1 7 4 NE 20 60 0,0
17.07.2018 09:00:00 12,3 9,6 2 1 7 4 N 17 29 0,0
17.07.2018 08:00:00 9,5 8,0 2 1 11 6 W 20 0 -
17.07.2018 07:00:00 9,6 8,0 2 1 13 7 NNW 20 0 0,0
17.07.2018 06:00:00 10,3 8,1 2 1 14 8 W 20 0 0,0
17.07.2018 05:00:00 11,5 8,5 2 1 21 11 WNW 20 0 0,0
17.07.2018 04:00:00 12,6 8,7 5 3 23 12 NNW 20 0 0,0
17.07.2018 03:00:00 12,4 9,4 3 1 14 8 WNW 20 0 0,0
17.07.2018 02:00:00 14,1 9,2 10 5 21 12 NNW 20 0 -
17.07.2018 01:00:00 15,0 9,6 10 5 24 13 NNW 20 0 0,0
17.07.2018 00:00:00 15,5 9,6 9 5 32 18 N 20 0 0,0
16.07.2018 23:00:00 15,9 9,6 8 4 23 13 NNW 20 0 0,0
16.07.2018 22:00:00 16,3 9,9 7 4 25 14 NNW 20 0 0,0
16.07.2018 21:00:00 17,5 10,2 6 4 19 10 NNW 20 0 0,0
16.07.2018 20:00:00 19,0 10,8 5 3 29 16 NNW 20 0 -
16.07.2018 19:00:00 - - - - - - - - - -
16.07.2018 18:00:00 21,0 8,3 13 7 34 18 NNW 20 42 0,0
16.07.2018 17:00:00 21,8 8,0 14 7 45 25 NW 20 37 0,0
16.07.2018 16:00:00 21,3 8,9 18 10 49 26 NW 20 43 0,0
16.07.2018 15:00:00 20,8 10,0 13 7 36 19 NNW 20 13 0,0
16.07.2018 14:00:00 22,1 9,9 11 6 29 16 NNW 20 36 -
16.07.2018 13:00:00 22,0 11,4 11 6 29 16 NW - 59 0,0
16.07.2018 12:00:00 19,4 12,4 11 6 26 14 NW - 60 0,0
16.07.2018 11:00:00 14,4 11,8 16 8 36 20 NNW - 5 1,2
16.07.2018 10:00:00 12,7 12,1 5 3 25 14 N - 0 2,6
16.07.2018 09:00:00 12,9 11,8 4 2 36 19 WNW - 0 5,2
16.07.2018 08:00:00 13,9 13,5 2 1 15 8 NNW 3,0 0 -
16.07.2018 07:00:00 13,6 12,0 1 1 8 4 E 4,1 0 0,0
16.07.2018 06:00:00 13,1 11,8 2 1 14 7 WSW 17 0 0,0
16.07.2018 05:00:00 13,4 10,0 2 1 16 8 SE 7 0 0,0
16.07.2018 04:00:00 12,7 9,7 1 1 11 6 WNW 20 0 0,0
16.07.2018 03:00:00 13,2 9,3 4 2 13 7 NW 20 0 0,0
16.07.2018 02:00:00 13,4 10,0 1 1 15 8 NNW 20 0 -
16.07.2018 01:00:00 14,1 9,9 2 1 14 8 N 20 0 0,0
16.07.2018 00:00:00 14,7 10,5 3 2 9 5 NW 20 0 0,0
15.07.2018 23:00:00 15,9 10,6 2 1 8 4 N 20 0 0,0
15.07.2018 22:00:00 17,1 11,3 2 1 8 5 NW 20 0 0,0
15.07.2018 21:00:00 19,7 11,7 1 1 8 5 NNW 20 0 0,0
15.07.2018 20:00:00 22,8 10,9 1 1 9 5 NW 20 0 -
15.07.2018 19:00:00 28,5 7,7 4 2 27 15 S 20 53 0,0
15.07.2018 18:00:00 29,3 6,1 5 3 28 15 ENE 20 60 0,0
15.07.2018 17:00:00 29,5 5,6 5 3 29 15 ESE 19 59 0,0
15.07.2018 16:00:00 29,1 5,1 5 3 27 14 ESE 20 57 0,0
15.07.2018 15:00:00 28,6 8,3 7 4 29 16 ESE 20 58 0,0
15.07.2018 14:00:00 28,7 8,9 6 4 33 18 SE 20 60 -
15.07.2018 13:00:00 28,2 11,3 5 3 21 11 SE 18 59 0,0
15.07.2018 12:00:00 26,8 10,5 7 4 23 12 SE 20 60 0,0
15.07.2018 11:00:00 24,6 12,5 7 4 23 13 SE 20 60 0,0
15.07.2018 10:00:00 20,2 14,1 1 1 8 4 NNE 20 60 0,0
15.07.2018 09:00:00 15,9 14,2 1 1 9 5 N 20 30 0,0
15.07.2018 08:00:00 13,4 12,3 1 1 13 7 WNW 16 0 -
15.07.2018 07:00:00 13,2 11,9 2 1 13 7 WNW 17 0 0,0
15.07.2018 06:00:00 13,5 11,9 3 1 15 8 WNW 17 0 0,0
15.07.2018 05:00:00 14,5 12,3 6 3 20 11 N 20 0 0,0
15.07.2018 04:00:00 14,8 12,8 3 2 16 9 NW 20 0 0,0
15.07.2018 03:00:00 15,6 13,1 5 3 18 10 N 20 0 0,0
15.07.2018 02:00:00 16,2 13,2 3 2 13 7 NW 20 0 -
15.07.2018 01:00:00 16,3 12,8 1 1 15 8 S 20 0 0,0
15.07.2018 00:00:00 16,4 13,5 3 2 11 6 NNW 20 0 0,0
14.07.2018 23:00:00 16,9 13,5 2 1 10 6 NW 20 0 0,0
14.07.2018 22:00:00 17,7 14,0 2 1 8 4 NW 20 0 0,0
14.07.2018 21:00:00 20,0 14,8 2 1 7 4 NW 20 0 0,0
14.07.2018 20:00:00 22,8 14,9 2 1 5 3 NW 20 0 -
14.07.2018 19:00:00 27,5 13,8 2 1 9 5 W 20 55 0,0
14.07.2018 18:00:00 29,6 10,2 4 2 26 14 SSW 20 60 0,0
14.07.2018 17:00:00 29,0 10,6 5 3 27 15 ESE 20 60 0,0
14.07.2018 16:00:00 28,7 12,5 6 3 22 12 ESE 2,5 56 0,0
14.07.2018 15:00:00 27,4 13,0 7 4 26 14 SE 20 54 0,0
14.07.2018 14:00:00 27,8 13,4 8 4 27 14 SE 20 60 -
14.07.2018 13:00:00 27,0 13,0 9 5 31 17 SSE 18 60 0,0
14.07.2018 12:00:00 25,2 14,3 6 3 25 13 ESE 20 60 0,0
14.07.2018 11:00:00 23,3 14,0 3 2 14 8 SE 20 48 0,0
14.07.2018 10:00:00 20,2 15,0 0 0 9 5 N 20 35 0,0
14.07.2018 09:00:00 17,5 15,5 1 1 6 3 N 20 11 0,0
14.07.2018 08:00:00 16,1 14,6 4 2 14 7 NNW 18 0 -
14.07.2018 07:00:00 15,7 14,6 0 0 10 6 N 15 0 0,0
14.07.2018 06:00:00 15,8 15,0 3 2 9 5 NNW 15 0 0,0
14.07.2018 05:00:00 15,9 15,1 1 1 5 3 NNW 12 0 0,0
14.07.2018 04:00:00 15,9 14,9 1 1 6 3 N 12 0 0,0
14.07.2018 03:00:00 16,0 14,9 3 1 9 5 NNW 16 0 0,0
14.07.2018 02:00:00 16,8 15,2 1 1 18 10 NNW 15 0 -
14.07.2018 01:00:00 17,0 15,2 5 3 17 9 N 20 0 0,0
14.07.2018 00:00:00 16,9 15,4 1 1 6 3 NNW 13 0 0,0
13.07.2018 23:00:00 17,9 16,4 1 1 9 5 NNW 14 0 0,0
13.07.2018 22:00:00 18,9 16,3 1 1 6 3 NNW 18 0 0,0
13.07.2018 21:00:00 20,4 17,1 2 1 6 3 N 20 0 0,0

tt = Température de l'air
td = dewpoint
ff = Vitesse du vent
fx = gusts
dd = Direction du vent
vv = visibility
sd = Ensoleillement
rr = Quantités de précipitations

stations d'obs. à proximité